sensor_id;sensor_type;location;lat;lon;timestamp;P1;durP1;ratioP1;P2;durP2;ratioP2
65463;SDS011;52063;45.110;9.870;2022-09-16T00:00:56;5.88;;;2.20;;
65463;SDS011;52063;45.110;9.870;2022-09-16T00:03:21;6.27;;;2.10;;
65463;SDS011;52063;45.110;9.870;2022-09-16T00:05:48;7.23;;;2.23;;
65463;SDS011;52063;45.110;9.870;2022-09-16T00:08:14;5.93;;;1.80;;
65463;SDS011;52063;45.110;9.870;2022-09-16T00:10:39;7.07;;;1.73;;
65463;SDS011;52063;45.110;9.870;2022-09-16T00:13:05;5.30;;;1.88;;
65463;SDS011;52063;45.110;9.870;2022-09-16T00:15:31;4.13;;;1.67;;
65463;SDS011;52063;45.110;9.870;2022-09-16T00:17:56;4.87;;;1.90;;
65463;SDS011;52063;45.110;9.870;2022-09-16T00:20:21;9.13;;;1.70;;
65463;SDS011;52063;45.110;9.870;2022-09-16T00:22:47;4.53;;;2.03;;
65463;SDS011;52063;45.110;9.870;2022-09-16T00:25:12;5.60;;;1.97;;
65463;SDS011;52063;45.110;9.870;2022-09-16T00:27:37;3.57;;;1.90;;
65463;SDS011;52063;45.110;9.870;2022-09-16T00:30:03;5.30;;;1.70;;
65463;SDS011;52063;45.110;9.870;2022-09-16T00:32:28;5.90;;;2.00;;
65463;SDS011;52063;45.110;9.870;2022-09-16T00:34:54;6.03;;;2.00;;
65463;SDS011;52063;45.110;9.870;2022-09-16T00:37:19;8.37;;;1.93;;
65463;SDS011;52063;45.110;9.870;2022-09-16T00:39:47;3.93;;;1.70;;
65463;SDS011;52063;45.110;9.870;2022-09-16T00:42:13;6.63;;;2.17;;
65463;SDS011;52063;45.110;9.870;2022-09-16T00:47:13;5.10;;;1.70;;
65463;SDS011;52063;45.110;9.870;2022-09-16T00:49:40;4.03;;;1.88;;
65463;SDS011;52063;45.110;9.870;2022-09-16T00:52:06;8.52;;;2.35;;
65463;SDS011;52063;45.110;9.870;2022-09-16T00:54:32;6.80;;;2.40;;
65463;SDS011;52063;45.110;9.870;2022-09-16T00:56:58;4.50;;;1.50;;
65463;SDS011;52063;45.110;9.870;2022-09-16T00:59:25;5.95;;;2.17;;
65463;SDS011;52063;45.110;9.870;2022-09-16T01:01:53;5.00;;;2.13;;
65463;SDS011;52063;45.110;9.870;2022-09-16T01:04:20;5.67;;;2.13;;
65463;SDS011;52063;45.110;9.870;2022-09-16T01:06:47;5.80;;;1.98;;
65463;SDS011;52063;45.110;9.870;2022-09-16T01:09:13;5.18;;;2.03;;
65463;SDS011;52063;45.110;9.870;2022-09-16T01:11:38;5.53;;;2.00;;
65463;SDS011;52063;45.110;9.870;2022-09-16T01:14:04;4.88;;;2.22;;
65463;SDS011;52063;45.110;9.870;2022-09-16T01:30:42;7.87;;;2.10;;
65463;SDS011;52063;45.110;9.870;2022-09-16T01:43:24;7.97;;;2.50;;
65463;SDS011;52063;45.110;9.870;2022-09-16T01:45:54;5.90;;;2.43;;
65463;SDS011;52063;45.110;9.870;2022-09-16T01:50:51;5.82;;;2.17;;
65463;SDS011;52063;45.110;9.870;2022-09-16T01:53:33;5.78;;;2.30;;
65463;SDS011;52063;45.110;9.870;2022-09-16T01:56:18;6.05;;;2.13;;
65463;SDS011;52063;45.110;9.870;2022-09-16T01:59:19;3.80;;;2.20;;
65463;SDS011;52063;45.110;9.870;2022-09-16T02:01:41;9.20;;;1.92;;
65463;SDS011;52063;45.110;9.870;2022-09-16T02:04:19;10.43;;;2.50;;
65463;SDS011;52063;45.110;9.870;2022-09-16T02:06:45;9.63;;;2.47;;
65463;SDS011;52063;45.110;9.870;2022-09-16T02:09:15;3.97;;;2.17;;
65463;SDS011;52063;45.110;9.870;2022-09-16T02:11:42;6.60;;;2.43;;
65463;SDS011;52063;45.110;9.870;2022-09-16T02:14:16;4.90;;;2.00;;
65463;SDS011;52063;45.110;9.870;2022-09-16T02:16:53;4.82;;;2.00;;
65463;SDS011;52063;45.110;9.870;2022-09-16T02:19:24;7.63;;;2.05;;
65463;SDS011;52063;45.110;9.870;2022-09-16T02:21:51;4.90;;;2.00;;
65463;SDS011;52063;45.110;9.870;2022-09-16T02:24:18;5.30;;;2.30;;
65463;SDS011;52063;45.110;9.870;2022-09-16T02:26:49;6.43;;;2.08;;
65463;SDS011;52063;45.110;9.870;2022-09-16T02:29:17;3.88;;;1.98;;
65463;SDS011;52063;45.110;9.870;2022-09-16T02:31:45;4.20;;;2.28;;
65463;SDS011;52063;45.110;9.870;2022-09-16T02:34:18;5.57;;;2.40;;
65463;SDS011;52063;45.110;9.870;2022-09-16T02:36:45;6.70;;;2.30;;
65463;SDS011;52063;45.110;9.870;2022-09-16T02:39:13;9.23;;;2.30;;
65463;SDS011;52063;45.110;9.870;2022-09-16T02:41:40;5.00;;;1.83;;
65463;SDS011;52063;45.110;9.870;2022-09-16T02:44:06;4.00;;;1.83;;
65463;SDS011;52063;45.110;9.870;2022-09-16T02:46:45;3.97;;;1.80;;
65463;SDS011;52063;45.110;9.870;2022-09-16T02:49:15;3.72;;;1.90;;
65463;SDS011;52063;45.110;9.870;2022-09-16T02:56:47;4.43;;;1.60;;
65463;SDS011;52063;45.110;9.870;2022-09-16T02:59:13;2.92;;;1.95;;
65463;SDS011;52063;45.110;9.870;2022-09-16T03:01:40;4.15;;;2.10;;
65463;SDS011;52063;45.110;9.870;2022-09-16T03:04:09;5.17;;;2.20;;
65463;SDS011;52063;45.110;9.870;2022-09-16T03:06:36;5.40;;;2.30;;
65463;SDS011;52063;45.110;9.870;2022-09-16T03:09:04;4.18;;;2.10;;
65463;SDS011;52063;45.110;9.870;2022-09-16T03:14:02;5.97;;;2.10;;
65463;SDS011;52063;45.110;9.870;2022-09-16T03:27:14;8.60;;;1.90;;
65463;SDS011;52063;45.110;9.870;2022-09-16T03:29:52;4.75;;;2.20;;
65463;SDS011;52063;45.110;9.870;2022-09-16T03:32:23;6.25;;;1.95;;
65463;SDS011;52063;45.110;9.870;2022-09-16T03:34:53;2.90;;;1.90;;
65463;SDS011;52063;45.110;9.870;2022-09-16T03:37:22;7.72;;;3.10;;
65463;SDS011;52063;45.110;9.870;2022-09-16T03:39:52;6.85;;;2.47;;
65463;SDS011;52063;45.110;9.870;2022-09-16T03:42:19;5.93;;;2.63;;
65463;SDS011;52063;45.110;9.870;2022-09-16T03:44:45;6.07;;;2.10;;
65463;SDS011;52063;45.110;9.870;2022-09-16T03:47:10;6.53;;;2.10;;
65463;SDS011;52063;45.110;9.870;2022-09-16T03:49:36;7.18;;;2.13;;
65463;SDS011;52063;45.110;9.870;2022-09-16T03:52:02;2.72;;;1.60;;
65463;SDS011;52063;45.110;9.870;2022-09-16T03:54:29;3.77;;;1.50;;
65463;SDS011;52063;45.110;9.870;2022-09-16T03:56:55;4.75;;;1.90;;
65463;SDS011;52063;45.110;9.870;2022-09-16T03:59:20;7.00;;;1.90;;
65463;SDS011;52063;45.110;9.870;2022-09-16T04:01:46;4.47;;;2.13;;
65463;SDS011;52063;45.110;9.870;2022-09-16T04:04:11;4.22;;;1.60;;
65463;SDS011;52063;45.110;9.870;2022-09-16T04:06:37;5.87;;;2.00;;
65463;SDS011;52063;45.110;9.870;2022-09-16T04:09:03;3.53;;;2.10;;
65463;SDS011;52063;45.110;9.870;2022-09-16T04:11:28;5.77;;;2.30;;
65463;SDS011;52063;45.110;9.870;2022-09-16T04:13:56;5.90;;;2.45;;
65463;SDS011;52063;45.110;9.870;2022-09-16T04:16:21;5.27;;;2.03;;
65463;SDS011;52063;45.110;9.870;2022-09-16T04:18:47;6.60;;;2.60;;
65463;SDS011;52063;45.110;9.870;2022-09-16T04:21:12;6.93;;;2.23;;
65463;SDS011;52063;45.110;9.870;2022-09-16T04:23:38;4.88;;;2.00;;
65463;SDS011;52063;45.110;9.870;2022-09-16T04:26:03;4.30;;;2.47;;
65463;SDS011;52063;45.110;9.870;2022-09-16T04:28:29;7.10;;;2.50;;
65463;SDS011;52063;45.110;9.870;2022-09-16T04:30:58;3.53;;;1.95;;
65463;SDS011;52063;45.110;9.870;2022-09-16T04:33:26;4.82;;;2.45;;
65463;SDS011;52063;45.110;9.870;2022-09-16T04:35:52;5.23;;;2.40;;
65463;SDS011;52063;45.110;9.870;2022-09-16T04:38:17;6.65;;;2.42;;
65463;SDS011;52063;45.110;9.870;2022-09-16T04:40:42;5.27;;;2.17;;
65463;SDS011;52063;45.110;9.870;2022-09-16T04:43:07;5.93;;;2.10;;
65463;SDS011;52063;45.110;9.870;2022-09-16T04:45:33;4.13;;;2.23;;
65463;SDS011;52063;45.110;9.870;2022-09-16T04:47:58;7.40;;;2.30;;
65463;SDS011;52063;45.110;9.870;2022-09-16T04:50:24;6.43;;;2.30;;
65463;SDS011;52063;45.110;9.870;2022-09-16T04:52:50;5.80;;;2.57;;
65463;SDS011;52063;45.110;9.870;2022-09-16T04:55:18;6.65;;;2.63;;
65463;SDS011;52063;45.110;9.870;2022-09-16T04:57:47;4.53;;;2.22;;
65463;SDS011;52063;45.110;9.870;2022-09-16T05:00:12;5.13;;;2.30;;
65463;SDS011;52063;45.110;9.870;2022-09-16T05:02:38;5.20;;;2.53;;
65463;SDS011;52063;45.110;9.870;2022-09-16T05:05:03;7.80;;;2.30;;
65463;SDS011;52063;45.110;9.870;2022-09-16T05:07:29;4.83;;;2.50;;
65463;SDS011;52063;45.110;9.870;2022-09-16T05:09:54;5.03;;;2.63;;
65463;SDS011;52063;45.110;9.870;2022-09-16T05:12:20;9.13;;;2.53;;
65463;SDS011;52063;45.110;9.870;2022-09-16T05:14:45;6.03;;;2.43;;
65463;SDS011;52063;45.110;9.870;2022-09-16T05:17:10;4.90;;;2.67;;
65463;SDS011;52063;45.110;9.870;2022-09-16T05:19:36;7.30;;;2.80;;
65463;SDS011;52063;45.110;9.870;2022-09-16T05:22:01;4.53;;;2.83;;
65463;SDS011;52063;45.110;9.870;2022-09-16T05:24:32;10.40;;;2.88;;
65463;SDS011;52063;45.110;9.870;2022-09-16T05:26:57;5.50;;;2.33;;
65463;SDS011;52063;45.110;9.870;2022-09-16T05:29:23;6.33;;;2.80;;
65463;SDS011;52063;45.110;9.870;2022-09-16T05:31:48;9.40;;;2.53;;
65463;SDS011;52063;45.110;9.870;2022-09-16T05:34:19;9.07;;;3.07;;
65463;SDS011;52063;45.110;9.870;2022-09-16T05:36:45;7.85;;;2.70;;
65463;SDS011;52063;45.110;9.870;2022-09-16T05:39:12;8.55;;;3.42;;
65463;SDS011;52063;45.110;9.870;2022-09-16T05:41:37;7.43;;;3.30;;
65463;SDS011;52063;45.110;9.870;2022-09-16T05:44:03;7.17;;;2.80;;
65463;SDS011;52063;45.110;9.870;2022-09-16T05:46:28;4.63;;;3.10;;
65463;SDS011;52063;45.110;9.870;2022-09-16T05:48:53;7.07;;;2.70;;
65463;SDS011;52063;45.110;9.870;2022-09-16T05:51:19;7.15;;;3.05;;
65463;SDS011;52063;45.110;9.870;2022-09-16T05:53:45;5.83;;;2.83;;
65463;SDS011;52063;45.110;9.870;2022-09-16T05:56:12;5.57;;;2.97;;
65463;SDS011;52063;45.110;9.870;2022-09-16T05:58:38;9.50;;;4.18;;
65463;SDS011;52063;45.110;9.870;2022-09-16T06:01:05;8.13;;;3.90;;
65463;SDS011;52063;45.110;9.870;2022-09-16T06:03:31;10.00;;;4.53;;
65463;SDS011;52063;45.110;9.870;2022-09-16T06:06:04;14.18;;;4.93;;
65463;SDS011;52063;45.110;9.870;2022-09-16T06:08:31;9.48;;;4.63;;
65463;SDS011;52063;45.110;9.870;2022-09-16T06:10:59;13.30;;;4.60;;
65463;SDS011;52063;45.110;9.870;2022-09-16T06:13:24;12.82;;;5.35;;
65463;SDS011;52063;45.110;9.870;2022-09-16T06:15:50;12.00;;;5.43;;
65463;SDS011;52063;45.110;9.870;2022-09-16T06:18:16;10.52;;;6.30;;
65463;SDS011;52063;45.110;9.870;2022-09-16T06:20:43;11.18;;;5.57;;
65463;SDS011;52063;45.110;9.870;2022-09-16T06:23:08;11.17;;;5.40;;
65463;SDS011;52063;45.110;9.870;2022-09-16T06:25:33;16.03;;;6.33;;
65463;SDS011;52063;45.110;9.870;2022-09-16T06:27:59;11.60;;;5.53;;
65463;SDS011;52063;45.110;9.870;2022-09-16T06:30:24;15.67;;;5.63;;
65463;SDS011;52063;45.110;9.870;2022-09-16T06:32:50;7.47;;;4.55;;
65463;SDS011;52063;45.110;9.870;2022-09-16T06:35:15;16.53;;;5.70;;
65463;SDS011;52063;45.110;9.870;2022-09-16T06:37:41;13.60;;;6.63;;
65463;SDS011;52063;45.110;9.870;2022-09-16T06:40:06;15.43;;;5.70;;
65463;SDS011;52063;45.110;9.870;2022-09-16T06:42:31;12.57;;;5.72;;
65463;SDS011;52063;45.110;9.870;2022-09-16T06:45:02;17.97;;;6.33;;
65463;SDS011;52063;45.110;9.870;2022-09-16T06:47:28;15.73;;;6.15;;
65463;SDS011;52063;45.110;9.870;2022-09-16T06:49:55;14.95;;;5.95;;
65463;SDS011;52063;45.110;9.870;2022-09-16T06:52:20;11.93;;;5.88;;
65463;SDS011;52063;45.110;9.870;2022-09-16T06:54:46;15.67;;;6.40;;
65463;SDS011;52063;45.110;9.870;2022-09-16T06:57:12;9.70;;;5.47;;
65463;SDS011;52063;45.110;9.870;2022-09-16T06:59:37;10.23;;;6.18;;
65463;SDS011;52063;45.110;9.870;2022-09-16T07:02:02;11.83;;;5.87;;
65463;SDS011;52063;45.110;9.870;2022-09-16T07:04:28;12.87;;;6.03;;
65463;SDS011;52063;45.110;9.870;2022-09-16T07:06:53;11.82;;;5.20;;
65463;SDS011;52063;45.110;9.870;2022-09-16T07:09:21;9.50;;;4.17;;
65463;SDS011;52063;45.110;9.870;2022-09-16T07:11:47;14.35;;;4.70;;
65463;SDS011;52063;45.110;9.870;2022-09-16T07:14:12;11.40;;;4.47;;
65463;SDS011;52063;45.110;9.870;2022-09-16T07:16:38;12.23;;;4.20;;
65463;SDS011;52063;45.110;9.870;2022-09-16T07:19:03;8.98;;;4.07;;
65463;SDS011;52063;45.110;9.870;2022-09-16T07:21:29;14.47;;;4.30;;
65463;SDS011;52063;45.110;9.870;2022-09-16T07:23:55;12.45;;;5.05;;
65463;SDS011;52063;45.110;9.870;2022-09-16T07:26:26;14.85;;;5.20;;
65463;SDS011;52063;45.110;9.870;2022-09-16T07:28:52;15.13;;;5.37;;
65463;SDS011;52063;45.110;9.870;2022-09-16T07:31:18;19.30;;;5.30;;
65463;SDS011;52063;45.110;9.870;2022-09-16T07:33:45;12.27;;;4.53;;
65463;SDS011;52063;45.110;9.870;2022-09-16T07:36:12;9.38;;;4.15;;
65463;SDS011;52063;45.110;9.870;2022-09-16T07:38:38;16.70;;;4.45;;
65463;SDS011;52063;45.110;9.870;2022-09-16T07:41:05;13.87;;;4.60;;
65463;SDS011;52063;45.110;9.870;2022-09-16T07:43:31;14.05;;;4.80;;
65463;SDS011;52063;45.110;9.870;2022-09-16T07:45:57;9.67;;;3.97;;
65463;SDS011;52063;45.110;9.870;2022-09-16T07:48:22;10.05;;;4.40;;
65463;SDS011;52063;45.110;9.870;2022-09-16T07:50:57;9.63;;;3.70;;
65463;SDS011;52063;45.110;9.870;2022-09-16T07:53:23;11.45;;;3.92;;
65463;SDS011;52063;45.110;9.870;2022-09-16T07:55:49;10.40;;;4.20;;
65463;SDS011;52063;45.110;9.870;2022-09-16T07:58:14;14.15;;;4.55;;
65463;SDS011;52063;45.110;9.870;2022-09-16T08:00:41;9.70;;;4.47;;
65463;SDS011;52063;45.110;9.870;2022-09-16T08:03:07;11.77;;;4.65;;
65463;SDS011;52063;45.110;9.870;2022-09-16T08:05:32;11.73;;;4.37;;
65463;SDS011;52063;45.110;9.870;2022-09-16T08:07:58;13.40;;;4.90;;
65463;SDS011;52063;45.110;9.870;2022-09-16T08:10:23;17.47;;;4.50;;
65463;SDS011;52063;45.110;9.870;2022-09-16T08:12:48;12.50;;;4.23;;
65463;SDS011;52063;45.110;9.870;2022-09-16T08:15:14;9.60;;;3.95;;
65463;SDS011;52063;45.110;9.870;2022-09-16T08:17:39;12.30;;;4.50;;
65463;SDS011;52063;45.110;9.870;2022-09-16T08:20:05;10.67;;;4.63;;
65463;SDS011;52063;45.110;9.870;2022-09-16T08:22:31;9.00;;;3.78;;
65463;SDS011;52063;45.110;9.870;2022-09-16T08:24:56;15.40;;;4.00;;
65463;SDS011;52063;45.110;9.870;2022-09-16T08:27:21;14.18;;;4.22;;
65463;SDS011;52063;45.110;9.870;2022-09-16T08:29:47;12.53;;;3.73;;
65463;SDS011;52063;45.110;9.870;2022-09-16T08:32:13;12.93;;;3.77;;
65463;SDS011;52063;45.110;9.870;2022-09-16T08:34:38;10.93;;;3.50;;
65463;SDS011;52063;45.110;9.870;2022-09-16T08:37:04;10.53;;;3.37;;
65463;SDS011;52063;45.110;9.870;2022-09-16T08:39:29;11.75;;;3.63;;
65463;SDS011;52063;45.110;9.870;2022-09-16T08:42:08;15.27;;;3.57;;
65463;SDS011;52063;45.110;9.870;2022-09-16T08:47:04;11.00;;;2.83;;
65463;SDS011;52063;45.110;9.870;2022-09-16T08:49:33;7.47;;;2.80;;
65463;SDS011;52063;45.110;9.870;2022-09-16T08:52:02;8.35;;;3.20;;
65463;SDS011;52063;45.110;9.870;2022-09-16T08:54:30;15.45;;;2.88;;
65463;SDS011;52063;45.110;9.870;2022-09-16T08:56:58;8.68;;;2.88;;
65463;SDS011;52063;45.110;9.870;2022-09-16T08:59:24;8.60;;;3.00;;
65463;SDS011;52063;45.110;9.870;2022-09-16T09:01:56;9.38;;;2.92;;
65463;SDS011;52063;45.110;9.870;2022-09-16T09:04:25;8.50;;;2.97;;
65463;SDS011;52063;45.110;9.870;2022-09-16T09:17:40;14.37;;;3.53;;
65463;SDS011;52063;45.110;9.870;2022-09-16T09:30:27;14.23;;;3.53;;
65463;SDS011;52063;45.110;9.870;2022-09-16T09:33:35;13.95;;;3.80;;
65463;SDS011;52063;45.110;9.870;2022-09-16T09:41:11;11.98;;;4.15;;
65463;SDS011;52063;45.110;9.870;2022-09-16T09:44:00;11.75;;;3.20;;
65463;SDS011;52063;45.110;9.870;2022-09-16T09:46:37;14.77;;;4.20;;
65463;SDS011;52063;45.110;9.870;2022-09-16T09:49:12;13.50;;;3.73;;
65463;SDS011;52063;45.110;9.870;2022-09-16T09:51:40;15.30;;;3.78;;
65463;SDS011;52063;45.110;9.870;2022-09-16T09:54:27;18.33;;;3.85;;
65463;SDS011;52063;45.110;9.870;2022-09-16T10:02:06;13.43;;;3.57;;
65463;SDS011;52063;45.110;9.870;2022-09-16T10:04:36;14.13;;;3.83;;
65463;SDS011;52063;45.110;9.870;2022-09-16T10:07:02;10.07;;;2.85;;
65463;SDS011;52063;45.110;9.870;2022-09-16T10:09:28;10.15;;;3.20;;
65463;SDS011;52063;45.110;9.870;2022-09-16T10:11:54;13.00;;;3.63;;
65463;SDS011;52063;45.110;9.870;2022-09-16T10:14:29;12.45;;;3.30;;
65463;SDS011;52063;45.110;9.870;2022-09-16T10:16:55;13.98;;;3.45;;
65463;SDS011;52063;45.110;9.870;2022-09-16T10:19:23;9.53;;;3.37;;
65463;SDS011;52063;45.110;9.870;2022-09-16T10:21:50;9.00;;;3.25;;
65463;SDS011;52063;45.110;9.870;2022-09-16T10:24:31;12.05;;;3.05;;
65463;SDS011;52063;45.110;9.870;2022-09-16T10:26:57;15.63;;;3.25;;
65463;SDS011;52063;45.110;9.870;2022-09-16T10:29:23;16.95;;;3.78;;
65463;SDS011;52063;45.110;9.870;2022-09-16T10:31:49;13.83;;;3.57;;
65463;SDS011;52063;45.110;9.870;2022-09-16T10:34:36;14.27;;;3.65;;
65463;SDS011;52063;45.110;9.870;2022-09-16T10:39:37;12.83;;;3.80;;
65463;SDS011;52063;45.110;9.870;2022-09-16T10:42:03;15.55;;;4.00;;
65463;SDS011;52063;45.110;9.870;2022-09-16T10:44:29;11.65;;;3.55;;
65463;SDS011;52063;45.110;9.870;2022-09-16T10:49:23;15.03;;;3.77;;
65463;SDS011;52063;45.110;9.870;2022-09-16T10:51:50;13.68;;;3.67;;
65463;SDS011;52063;45.110;9.870;2022-09-16T10:54:26;12.27;;;3.40;;
65463;SDS011;52063;45.110;9.870;2022-09-16T10:56:52;11.23;;;3.50;;
65463;SDS011;52063;45.110;9.870;2022-09-16T10:59:18;14.23;;;3.63;;
65463;SDS011;52063;45.110;9.870;2022-09-16T11:12:21;13.80;;;3.37;;
65463;SDS011;52063;45.110;9.870;2022-09-16T11:15:07;9.18;;;3.00;;
65463;SDS011;52063;45.110;9.870;2022-09-16T11:22:55;11.48;;;2.83;;
65463;SDS011;52063;45.110;9.870;2022-09-16T11:28:06;12.48;;;2.72;;
65463;SDS011;52063;45.110;9.870;2022-09-16T11:30:44;8.32;;;3.45;;
65463;SDS011;52063;45.110;9.870;2022-09-16T11:33:24;11.73;;;3.25;;
65463;SDS011;52063;45.110;9.870;2022-09-16T11:40:53;11.60;;;3.10;;
65463;SDS011;52063;45.110;9.870;2022-09-16T11:50:55;10.50;;;3.00;;
65463;SDS011;52063;45.110;9.870;2022-09-16T11:56:10;8.90;;;3.00;;
65463;SDS011;52063;45.110;9.870;2022-09-16T12:01:21;8.07;;;3.55;;
65463;SDS011;52063;45.110;9.870;2022-09-16T12:06:20;10.07;;;3.30;;
65463;SDS011;52063;45.110;9.870;2022-09-16T12:08:53;12.07;;;3.27;;
65463;SDS011;52063;45.110;9.870;2022-09-16T12:11:26;11.95;;;3.20;;
65463;SDS011;52063;45.110;9.870;2022-09-16T12:14:17;12.75;;;3.25;;
65463;SDS011;52063;45.110;9.870;2022-09-16T12:17:19;9.13;;;2.83;;
65463;SDS011;52063;45.110;9.870;2022-09-16T12:19:46;11.48;;;3.47;;
65463;SDS011;52063;45.110;9.870;2022-09-16T12:22:26;19.03;;;4.00;;
65463;SDS011;52063;45.110;9.870;2022-09-16T12:25:02;10.30;;;3.35;;
65463;SDS011;52063;45.110;9.870;2022-09-16T12:27:43;17.77;;;3.20;;
65463;SDS011;52063;45.110;9.870;2022-09-16T12:30:14;8.35;;;2.97;;
65463;SDS011;52063;45.110;9.870;2022-09-16T12:35:29;10.57;;;2.70;;
65463;SDS011;52063;45.110;9.870;2022-09-16T12:37:56;10.93;;;3.10;;
65463;SDS011;52063;45.110;9.870;2022-09-16T12:53:26;9.25;;;2.58;;
65463;SDS011;52063;45.110;9.870;2022-09-16T13:01:02;8.70;;;2.80;;
65463;SDS011;52063;45.110;9.870;2022-09-16T13:03:31;8.90;;;2.58;;
65463;SDS011;52063;45.110;9.870;2022-09-16T13:06:02;5.10;;;2.38;;
65463;SDS011;52063;45.110;9.870;2022-09-16T13:08:30;12.85;;;3.08;;
65463;SDS011;52063;45.110;9.870;2022-09-16T13:11:00;7.87;;;2.27;;
65463;SDS011;52063;45.110;9.870;2022-09-16T13:13:38;8.77;;;2.45;;
65463;SDS011;52063;45.110;9.870;2022-09-16T13:16:05;6.00;;;2.35;;
65463;SDS011;52063;45.110;9.870;2022-09-16T13:21:06;9.07;;;2.25;;
65463;SDS011;52063;45.110;9.870;2022-09-16T13:23:39;8.13;;;2.23;;
65463;SDS011;52063;45.110;9.870;2022-09-16T13:26:06;8.13;;;2.38;;
65463;SDS011;52063;45.110;9.870;2022-09-16T13:28:42;6.97;;;2.10;;
65463;SDS011;52063;45.110;9.870;2022-09-16T13:33:45;10.32;;;2.22;;
65463;SDS011;52063;45.110;9.870;2022-09-16T13:38:40;4.88;;;2.00;;
65463;SDS011;52063;45.110;9.870;2022-09-16T13:41:07;5.22;;;2.35;;
65463;SDS011;52063;45.110;9.870;2022-09-16T13:43:52;5.35;;;1.95;;
65463;SDS011;52063;45.110;9.870;2022-09-16T13:46:28;6.25;;;1.60;;
65463;SDS011;52063;45.110;9.870;2022-09-16T13:49:15;4.53;;;2.10;;
65463;SDS011;52063;45.110;9.870;2022-09-16T13:51:41;7.72;;;2.15;;
65463;SDS011;52063;45.110;9.870;2022-09-16T13:54:18;7.18;;;2.22;;
65463;SDS011;52063;45.110;9.870;2022-09-16T14:07:05;5.90;;;2.47;;
65463;SDS011;52063;45.110;9.870;2022-09-16T14:09:44;6.07;;;2.17;;
65463;SDS011;52063;45.110;9.870;2022-09-16T14:14:40;6.97;;;2.33;;
65463;SDS011;52063;45.110;9.870;2022-09-16T14:17:12;8.57;;;2.50;;
65463;SDS011;52063;45.110;9.870;2022-09-16T14:19:38;8.18;;;2.40;;
65463;SDS011;52063;45.110;9.870;2022-09-16T14:22:14;8.93;;;2.65;;
65463;SDS011;52063;45.110;9.870;2022-09-16T14:24:41;8.52;;;1.98;;
65463;SDS011;52063;45.110;9.870;2022-09-16T14:30:01;9.97;;;3.00;;
65463;SDS011;52063;45.110;9.870;2022-09-16T14:32:27;6.80;;;2.75;;
65463;SDS011;52063;45.110;9.870;2022-09-16T14:34:54;6.93;;;2.30;;
65463;SDS011;52063;45.110;9.870;2022-09-16T14:37:20;9.73;;;3.08;;
65463;SDS011;52063;45.110;9.870;2022-09-16T14:39:47;5.82;;;2.80;;
65463;SDS011;52063;45.110;9.870;2022-09-16T14:42:17;6.77;;;2.73;;
65463;SDS011;52063;45.110;9.870;2022-09-16T14:44:47;12.95;;;2.65;;
65463;SDS011;52063;45.110;9.870;2022-09-16T14:47:18;9.40;;;2.83;;
65463;SDS011;52063;45.110;9.870;2022-09-16T14:49:49;10.93;;;2.88;;
65463;SDS011;52063;45.110;9.870;2022-09-16T14:52:23;9.45;;;2.78;;
65463;SDS011;52063;45.110;9.870;2022-09-16T14:54:49;9.57;;;2.40;;
65463;SDS011;52063;45.110;9.870;2022-09-16T14:57:18;7.93;;;2.38;;
65463;SDS011;52063;45.110;9.870;2022-09-16T14:59:44;9.75;;;2.45;;
65463;SDS011;52063;45.110;9.870;2022-09-16T15:04:36;10.80;;;2.60;;
65463;SDS011;52063;45.110;9.870;2022-09-16T15:07:09;7.53;;;2.22;;
65463;SDS011;52063;45.110;9.870;2022-09-16T15:10:20;7.13;;;2.83;;
65463;SDS011;52063;45.110;9.870;2022-09-16T15:12:29;9.13;;;2.47;;
65463;SDS011;52063;45.110;9.870;2022-09-16T15:14:56;7.10;;;2.33;;
65463;SDS011;52063;45.110;9.870;2022-09-16T15:17:22;6.97;;;1.90;;
65463;SDS011;52063;45.110;9.870;2022-09-16T15:19:55;5.70;;;2.45;;
65463;SDS011;52063;45.110;9.870;2022-09-16T15:22:21;4.88;;;1.90;;
65463;SDS011;52063;45.110;9.870;2022-09-16T15:24:48;7.90;;;1.90;;
65463;SDS011;52063;45.110;9.870;2022-09-16T15:27:35;6.47;;;1.60;;
65463;SDS011;52063;45.110;9.870;2022-09-16T15:30:00;5.60;;;1.60;;
65463;SDS011;52063;45.110;9.870;2022-09-16T15:32:29;6.53;;;1.90;;
65463;SDS011;52063;45.110;9.870;2022-09-16T15:37:36;7.83;;;1.60;;
65463;SDS011;52063;45.110;9.870;2022-09-16T15:42:59;4.72;;;1.77;;
65463;SDS011;52063;45.110;9.870;2022-09-16T15:45:25;7.93;;;1.60;;
65463;SDS011;52063;45.110;9.870;2022-09-16T15:47:59;9.30;;;1.80;;
65463;SDS011;52063;45.110;9.870;2022-09-16T15:50:25;4.15;;;1.60;;
65463;SDS011;52063;45.110;9.870;2022-09-16T15:58:07;8.73;;;1.40;;
65463;SDS011;52063;45.110;9.870;2022-09-16T16:03:21;3.47;;;1.40;;
65463;SDS011;52063;45.110;9.870;2022-09-16T16:05:50;4.83;;;1.67;;
65463;SDS011;52063;45.110;9.870;2022-09-16T16:08:35;5.47;;;1.45;;
65463;SDS011;52063;45.110;9.870;2022-09-16T16:11:05;8.18;;;1.50;;
65463;SDS011;52063;45.110;9.870;2022-09-16T16:13:30;5.25;;;1.58;;
65463;SDS011;52063;45.110;9.870;2022-09-16T16:15:57;4.83;;;1.50;;
65463;SDS011;52063;45.110;9.870;2022-09-16T16:18:22;5.57;;;1.73;;
65463;SDS011;52063;45.110;9.870;2022-09-16T16:20:48;4.38;;;1.20;;
65463;SDS011;52063;45.110;9.870;2022-09-16T16:23:13;4.17;;;1.40;;
65463;SDS011;52063;45.110;9.870;2022-09-16T16:25:39;5.33;;;1.67;;
65463;SDS011;52063;45.110;9.870;2022-09-16T16:28:04;4.75;;;1.20;;
65463;SDS011;52063;45.110;9.870;2022-09-16T16:30:29;5.80;;;1.10;;
65463;SDS011;52063;45.110;9.870;2022-09-16T16:32:55;3.17;;;1.27;;
65463;SDS011;52063;45.110;9.870;2022-09-16T16:35:20;3.77;;;1.23;;
65463;SDS011;52063;45.110;9.870;2022-09-16T16:37:46;4.13;;;1.17;;
65463;SDS011;52063;45.110;9.870;2022-09-16T16:40:11;6.73;;;1.50;;
65463;SDS011;52063;45.110;9.870;2022-09-16T16:42:37;4.33;;;1.20;;
65463;SDS011;52063;45.110;9.870;2022-09-16T16:45:04;5.22;;;1.42;;
65463;SDS011;52063;45.110;9.870;2022-09-16T16:47:29;5.15;;;1.20;;
65463;SDS011;52063;45.110;9.870;2022-09-16T16:49:55;3.93;;;1.00;;
65463;SDS011;52063;45.110;9.870;2022-09-16T16:52:21;4.25;;;1.38;;
65463;SDS011;52063;45.110;9.870;2022-09-16T16:54:46;3.13;;;1.17;;
65463;SDS011;52063;45.110;9.870;2022-09-16T16:57:11;3.80;;;1.27;;
65463;SDS011;52063;45.110;9.870;2022-09-16T16:59:37;6.10;;;1.30;;
65463;SDS011;52063;45.110;9.870;2022-09-16T17:02:02;6.53;;;1.17;;
65463;SDS011;52063;45.110;9.870;2022-09-16T17:04:28;4.13;;;1.30;;
65463;SDS011;52063;45.110;9.870;2022-09-16T17:06:53;3.97;;;1.20;;
65463;SDS011;52063;45.110;9.870;2022-09-16T17:09:19;3.15;;;1.20;;
65463;SDS011;52063;45.110;9.870;2022-09-16T17:12:02;7.03;;;1.33;;
65463;SDS011;52063;45.110;9.870;2022-09-16T17:14:29;3.40;;;1.23;;
65463;SDS011;52063;45.110;9.870;2022-09-16T17:16:54;5.55;;;1.10;;
65463;SDS011;52063;45.110;9.870;2022-09-16T17:19:21;2.93;;;1.23;;
65463;SDS011;52063;45.110;9.870;2022-09-16T17:21:47;2.08;;;0.98;;
65463;SDS011;52063;45.110;9.870;2022-09-16T17:24:15;4.65;;;1.15;;
65463;SDS011;52063;45.110;9.870;2022-09-16T17:26:41;2.77;;;1.13;;
65463;SDS011;52063;45.110;9.870;2022-09-16T17:29:07;1.95;;;1.00;;
65463;SDS011;52063;45.110;9.870;2022-09-16T17:31:32;3.67;;;1.17;;
65463;SDS011;52063;45.110;9.870;2022-09-16T17:33:59;7.15;;;1.52;;
65463;SDS011;52063;45.110;9.870;2022-09-16T17:36:30;3.83;;;1.25;;
65463;SDS011;52063;45.110;9.870;2022-09-16T17:41:21;3.40;;;1.40;;
65463;SDS011;52063;45.110;9.870;2022-09-16T17:43:47;3.60;;;1.30;;
65463;SDS011;52063;45.110;9.870;2022-09-16T17:46:14;4.05;;;1.30;;
65463;SDS011;52063;45.110;9.870;2022-09-16T17:48:40;2.70;;;1.25;;
65463;SDS011;52063;45.110;9.870;2022-09-16T17:51:05;3.97;;;1.37;;
65463;SDS011;52063;45.110;9.870;2022-09-16T17:53:32;6.10;;;1.90;;
65463;SDS011;52063;45.110;9.870;2022-09-16T17:56:07;5.03;;;1.50;;
65463;SDS011;52063;45.110;9.870;2022-09-16T17:58:33;5.03;;;1.52;;